Loisir ou Compétition : Rejoignez un Club de la Fédération

Résultats

GP International Citadin hommes

Bonneval

SL Hommes

Jury de Compétition

Délégué Technique :
DHEYRIAT FABIENNE (FRA)
Arbitre :
LESIEUR RICHARD (FRA)
Assistant :
 
Dir. Epreuve :
BURDIN ROBERT (FRA)

Caractéristiques de la Piste

Piste :
POLO BONIFACE
Départ :
2000
Arrivée :
1850
Dénivelé :
150
Homologation :
9478/02/10

Manche 1

Nombre de Portes :
54
Heure de Départ :
09.45
Traceur :
TOMAMICHEL CLEMENT (FRA)
Ouvreurs A :
PELTIER MAEL (FRA)
Ouvreurs B :
NORAZ LUCK (FRA)
Ouvreurs C :
SYLVESTRE BARON PAUL (FRA)
Ouvreurs D :
 
Ouvreurs E :
 
Temps :
beau
Neige :
dure

Manche 2

Nombre de Portes :
52
Heure de Départ :
13h
Traceur :
FOURRAT JEAN BAPTISTE (FRA)
Ouvreurs A :
COSTERG AXEL (FRA)
Ouvreurs B :
CLERICE JULES (FRA)
Ouvreurs C :
SIMON THEO (FRA)
Ouvreurs D :
 
Ouvreurs E :
 
Température Départ :
-7
Température Arrivée :
-6

Pénalité Appliquée :
31.5400

Catégorie :
*
Clt Dos Clt/Cat Code An Nom Prénom Nat Com Club Tps M1 Tps M2 Tps Tot Pts
Classés
1 4 1/U30 FIS6190046 1995 SALERNO Hugo FRA AU SC LIORAN 43.20 44.05 1:27.25 31.54
2 9 1/U21 FIS6190791 1999 SCHMITT Thomas FRA SA COURCHEVEL 44.45 43.33 1:27.78 35.97
3 3 2/U30 FIS6292582 1997 POMPEI Giovanni ITA 43.63 44.43 1:28.06 38.32
4 7 2/U21 FIS6190551 1998 DE GALBERT Antoine FRA SA CS LA PLAGNE 44.01 44.73 1:28.74 44.01
5 6 3/U21 FIS6293353 1999 SCARABOSIO Alvise ITA 44.39 44.51 1:28.90 45.35
6 1 4/U21 FIS6292916 1998 ALLEMAND Daniel ITA 44.29 44.97 1:29.26 48.36
7 23 5/U21 FIS6190911 2000 PASQUIER Thomas FRA MB SC GD BORNAN 45.34 44.44 1:29.78 52.71
8 13 6/U21 FIS6532137 1998 BIRKNER Alexander USA 45.79 44.06 1:29.85 53.29
9 40 7/U21 FIS6190785 1999 FITA Mateo FRA SA CS LA PLAGNE 45.02 44.85 1:29.87 53.46
10 20 8/U21 FIS6293104 1999 LUPOTTO Edoardo ITA 45.78 44.27 1:30.05 54.97
11 11 1/U18 FIS6191078 2001 LARDON Thomas FRA DA SC ALPE HUEZ 45.30 44.76 1:30.06 55.05
12 25 9/U21 FIS6190873 2000 PINTURAULT Cedric FRA SA COURCHEVEL 45.79 44.29 1:30.08 55.22
13 30 3/U30 FIS6190422 1997 COTTINEAU Vito FRA DA VILLARDELANS 46.07 44.07 1:30.14 55.72
14 32 10/U21 FIS6190789 1999 BESSON Victor FRA SA COURCHEVEL 46.07 44.15 1:30.22 56.39
15 24 2/U18 FIS6191047 2001 ZINANT Eliot FRA SA SC VALMEINIE 45.76 44.50 1:30.26 56.72
16 14 11/U21 FIS6190710 1999 CHAUVET Jeremy FRA AP SAUZE BARCEL 45.89 44.40 1:30.29 56.97
17 18 12/U21 FIS6190820 1999 SCHIELE Louis FRA MB CS MEGEVE 46.26 44.09 1:30.35 57.48
18 33 3/U18 FIS6191019 2001 DELALE Matteo FRA MB S.C. CHATEL 46.09 44.35 1:30.44 58.23
19 8 4/U18 FIS6191048 2001 BANFI Pablo FRA SA CS SAISIES 43.22 47.26 1:30.48 58.56
20 22 13/U21 FIS6190750 1999 CARBONERO Adrien FRA DA VOIRON SKI M 45.73 44.83 1:30.56 59.23
21 52 5/U18 FIS6191057 2001 ROSSET Pierre Sylvain FRA MB LES GETS S.C 46.38 44.29 1:30.67 60.15
22 26 6/U18 FIS6191079 2001 HORELLOU Maxence FRA DA SC ALPE HUEZ 45.69 45.00 1:30.69 60.32
23 19 4/U30 FIS6190416 1997 VANHEULE Joffrey FRA DA VOIRON SKI M 45.81 44.98 1:30.79 61.16
24 34 14/U21 FIS6190922 2000 PICCININI Guillaume FRA CA INTER CLUB 46.43 44.43 1:30.86 61.74
25 44 7/U18 FIS6191021 2001 TOCHON FERDOLLET Iselin FRA MB SC GD BORNAN 46.52 44.41 1:30.93 62.33
26 12 15/U21 FIS6190874 2000 CENERELLI Enzo FRA SA COURCHEVEL 46.51 44.43 1:30.94 62.41
26 16 15/U21 FIS30422 1999 VALLECILLO Juan Pablo ARG 46.21 44.73 1:30.94 62.41
28 105 8/U18 FIS6191176 2002 DIMIER CHAMBET Sacha FRA SA CS VAL CENIS 46.64 44.49 1:31.13 64.00
29 27 17/U21 FIS6190914 2000 VAINER Flynn FRA MB LES HOUCHES 46.02 45.29 1:31.31 65.51
30 117 9/U18 FIS6191203 2002 AULNETTE Auguste FRA MB SC MIEUSSY 46.68 44.85 1:31.53 67.35
31 36 18/U21 FIS6190865 2000 DELOURME Julien FRA PE PYRENEES2000 45.69 45.86 1:31.55 67.52
32 98 10/U18 FIS6191194 2002 BESSIERE Victor FRA MB SC GD BORNAN 47.12 44.84 1:31.96 70.95
33 21 11/U18 FIS6293885 2001 DAMANTI Davide ITA 46.90 45.22 1:32.12 72.29
34 90 12/U18 FIS512513 2002 RODUIT Luc SUI 47.10 45.19 1:32.29 73.71
35 41 13/U18 FIS6293819 2001 FRANZOSO Michele ITA 46.94 45.64 1:32.58 76.13
35 107 13/U18 FIS6191177 2002 HOAREAU Benjamin FRA SA COURCHEVEL 47.13 45.45 1:32.58 76.13
37 51 15/U18 FIS6191072 2001 RIVES Louis FRA SA COURCHEVEL 46.93 45.74 1:32.67 76.89
38 46 16/U18 FIS6191071 2001 FREYDIER Mahe FRA SA COURCHEVEL 47.02 45.70 1:32.72 77.31
39 43 19/U21 FIS6190936 2000 BORLET Quentin FRA MJ SMBM/MORBIER 46.65 46.15 1:32.80 77.98
40 35 17/U18 FIS6191016 2001 HAUTEVILLE Mathis FRA MB CS FLAINE 46.55 46.26 1:32.81 78.06
41 10 5/U30 FIS151111 1995 KEJVAL Martin CZE 46.72 46.36 1:33.08 80.32
42 53 18/U18 FIS512452 2001 CORTHAY Emric SUI 46.97 46.15 1:33.12 80.65
43 99 19/U18 FIS512511 2002 MACHERET Nicolas SUI 48.07 45.13 1:33.20 81.32
44 17 20/U21 FIS6190928 2000 GIRAUD Victor FRA DA VILLARDELANS 47.27 46.23 1:33.50 83.83
45 49 20/U18 FIS6191066 2001 GOUGOUX Florent FRA SA SC ENTREMONT 47.67 46.30 1:33.97 87.76
46 28 21/U21 FIS6190569 1998 MIQUEL Theo FRA DA SC ALPE HUEZ 47.58 46.62 1:34.20 89.69
47 115 21/U18 FIS6191237 2002 GIRARD CORENTIN FRA SA CS VILLARDS 48.21 46.01 1:34.22 89.86
48 92 22/U18 FIS6191220 2002 PAGET Max FRA MB IC MAGLAND 47.82 46.69 1:34.51 92.28
49 47 22/U21 FIS6190929 2000 JOUNIAUX Mathis FRA DA VILLARDELANS 48.07 46.52 1:34.59 92.95
50 82 23/U18 FIS6294163 2002 BINI Lorenzo Thomas ITA 47.90 46.71 1:34.61 93.12
51 72 24/U18 FIS512449 2001 BOVET Pierre SUI 47.79 46.86 1:34.65 93.45
52 48 25/U18 FIS6191092 2001 BRISSEAU Antoine FRA MB SKI ACADEMY 48.01 46.77 1:34.78 94.54
53 110 26/U18 FIS6191207 2002 PERRIN Niels FRA MB SC COMBLOUX 48.30 46.51 1:34.81 94.79
54 97 27/U18 FIS6191238 2002 SAMBUIS baptiste FRA SA ST FRANCOIS 48.21 46.63 1:34.84 95.04
55 38 6/U30 FIS6190098 1995 ZINNATO Lucas FRA DA GUC GRENOBLE 47.27 47.86 1:35.13 97.47
56 39 28/U18 FIS6191002 2001 MOY Loup FRA MB LES HOUCHES 48.36 46.98 1:35.34 99.23
57 93 29/U18 FIS6191195 2002 ARDIN Justin FRA MB CS LA CLUSAZ 48.42 46.93 1:35.35 99.31
58 94 30/U18 FIS6191164 2002 BOISSY Loan FRA DA CO 7 LAUX GR 48.55 47.07 1:35.62 101.57
59 84 31/U18 FIS6191210 2002 ROMANINI Maxence FRA AP SC MONGENEV 48.94 46.71 1:35.65 101.82
60 29 32/U18 FIS6301006 2001 TAKADA Shunnosuke JPN 48.32 47.43 1:35.75 102.66
61 112 33/U18 FIS6191178 2002 HULOT Kylian FRA SA COURCHEVEL 48.64 47.32 1:35.96 104.41
62 113 34/U18 FIS6191225 2002 BOURGEOIS CHARLES Theo FRA SA CS MERIBEL 48.86 47.25 1:36.11 105.67
63 119 35/U18 FIS6294147 2002 BETHAZ Stephane ITA 48.98 47.40 1:36.38 107.93
64 55 36/U18 FIS6191069 2001 ARANJO Baptiste FRA SA VAL D'ISERE 49.58 47.17 1:36.75 111.02
65 89 37/U18 FIS512514 2002 GLASSEY Maxime SUI 49.17 47.73 1:36.90 112.28
66 68 38/U18 FIS6191000 2001 GAUTHIER Axel FRA MJ US LAMOURA 48.90 48.24 1:37.14 114.29
67 91 39/U18 FIS512517 2002 BORTIS Gian-Luca SUI 49.50 47.72 1:37.22 114.96
68 123 40/U18 FIS6191196 2002 BASTARD Edouard FRA MB LES GETS S.C 49.16 48.28 1:37.44 116.80
69 106 41/U18 FIS512526 2002 HIRSCHI Bastien SUI 49.96 47.49 1:37.45 116.88
70 103 42/U18 FIS512516 2002 STOFFEL Ralf SUI 49.35 48.12 1:37.47 117.05
71 86 43/U18 FIS6191125 2002 LAVOISIER Damien FRA CA INTER CLUB 49.69 47.90 1:37.59 118.05
72 60 44/U18 FIS6191200 2002 BERTAGNOLIO Franck FRA MB LES HOUCHES 48.48 49.12 1:37.60 118.14
73 88 23/U21 FIS6293466 2000 LANFRANCO Niccolo ITA 49.69 48.02 1:37.71 119.06
74 102 45/U18 FIS6191192 2002 THIENNARD Theo FRA MB SC GD BORNAN 49.31 48.47 1:37.78 119.64
75 58 46/U18 FIS6191206 2002 KLUFTS Liam FRA MB SC CARROZ 49.61 48.62 1:38.23 123.41
76 121 47/U18 FIS6191170 2002 ANCENAY Matts FRA SA ND BELLECOMB 50.37 47.96 1:38.33 124.24
77 111 48/U18 FIS6191202 2002 ROOS Jimmy FRA MB SC MORZ AVO 49.87 48.49 1:38.36 124.49
78 127 49/U18 FIS6294293 2002 BERTHOD Stephane ITA 50.05 48.67 1:38.72 127.51
79 76 24/U21 FIS6190747 1999 GIRARD Colin FRA DA GUC GRENOBLE 49.24 49.68 1:38.92 129.18
80 65 50/U18 FIS6191044 2001 RICHARD Aurelien FRA SA CO VAL THO 50.56 48.87 1:39.43 133.45
81 100 51/U18 FIS6191189 2002 TURNES Elio FRA AU SC LIORAN 50.08 49.45 1:39.53 134.28
82 104 52/U18 FIS6191121 2002 PETIT Erwan FRA AU SC LIORAN 49.35 51.17 1:40.52 142.57
83 120 53/U18 FIS512518 2002 FATTON Sven SUI 51.19 49.35 1:40.54 142.73
84 79 54/U18 FIS6191082 2001 CANCE Hugo FRA DA VILLARDELANS 50.85 50.87 1:41.72 152.61
85 126 55/U18 FIS6191137 2002 VIANO Richardson FRA AP PUY ST VINCE 52.43 50.94 1:43.37 166.41
86 125 56/U18 FIS6301262 2002 OMIYA Kotaro JPN 53.11 51.35 1:44.46 175.53
87 80 57/U18 FIS6191081 2001 DELEVAL Killian FRA DA VILLARDELANS 52.56 53.23 1:45.79 186.66
88 85 58/U18 FIS6191136 2002 FURONE Quentin FRA AP PUY ST VINCE 51.33 54.54 1:45.87 187.33
89 78 59/U18 FIS6191083 2001 BORTOLOTTI Alexandre FRA DA VILLARDELANS 54.09 54.52 1:48.61 210.25
90 109 60/U18 FIS492408 2001 FONTSARE Ricardo ESP 1:00.26 1:02.86 2:03.12 331.66
Abandons
2 FIS6292478 1997 ANDREIS Sebastiano ITA 45.34
5 FIS6293302 1999 CORDONE Stefano ITA
15 FIS6190566 1998 COLLOMBET Ryan FRA DA VOIRON SKI M
31 FIS6190648 1998 BIBOLLET Joseph FRA SA SC FLUMET
37 FIS6191013 2001 LEVECQ Nathan FRA MB SC MT SAXONN
42 FIS6190897 2000 DE GALBERT Arnaud FRA SA CS LA PLAGNE 46.67
45 FIS6293927 2001 CORDONE Carlo ITA 48.39
50 FIS6293591 2000 PALLAIS Federico ITA
56 FIS6190848 2000 BOULANGER Erwan FRA IF RCF
59 FIS6293911 2001 POLESEL Davide ITA 50.22
61 FIS6190850 2000 SAINT JOURS Louis FRA PO SKI SURF SUN 49.64
63 FIS6191058 2001 GUIGONNET Edouard GBR 48.73
64 FIS6300640 1999 KAWATO Hiroki JPN
67 FIS6191100 2001 PIERI SALLAZ Raphael FRA SA CS MERIBEL
69 FIS6191135 2002 VIDAL Noah FRA AP SERRE CHEVAL 1:00.58
70 FIS6190889 2000 JEFFROY Hugo FRA SA SC ROCHETTE 49.69
71 FIS6190978 2001 FINANCE Edgar FRA MV AS GERARDMER
74 FIS6190927 2000 ACHARD LOMBARD Jeremy FRA DA VILLARDELANS 51.85
75 FIS512451 2001 VAUTHEY Maxime SUI 48.91
77 FIS6190715 1998 LASRY Mikhael FRA IF RCF 52.00
81 FIS6191053 2001 BRIFFOTEAU Clement FRA SA SC ROCHETTE 51.35
83 FIS512454 2001 IMMELE Corentin SUI
87 FIS6191096 2001 MIESCH Fernand FRA MV VT MULHOUSE 55.18
95 FIS6191188 2002 HUYGHE Tom FRA SA SC CHAMBERY
96 FIS512515 2002 BOCHATAY Benoit SUI 49.77
108 FIS6191179 2002 FRESSARD Antoine FRA SA SC MENUIRES
114 FIS6191186 2002 PERRUISSET Gautier FRA SA SC CHAMBERY 51.19
116 FIS6191180 2002 CRETIN Ulysse FRA SA SC MENUIRES
122 FIS6191151 2002 PUYO Antoine FRA PE SKI TOY 53.11
124 FIS6191187 2002 SENECHAL Titouan FRA SA SC CHAMBERY
128 FIS6191211 2002 CHOMARAT Tom FRA MB CS CHAMONIX 49.99
Disqualifiés
54 FIS6190993 2001 DECORY Victor FRA AP ORRES EMBRUN
57 FIS6191074 2001 PECHOUX Tanguy FRA MB IC MAGLAND 49.18
62 FIS6191089 2001 PEDRINI Matteo FRA MB SC GD BORNAN 48.90
66 FIS6191134 2002 GAMEL SEIGNEUR Charles FRA AP SERRE CHEVAL
73 FIS6190994 2001 MAGNAN Nathan FRA AP ORRES EMBRUN 47.67
101 FIS6191219 2002 MARSHALL Jonathan FRA SA COURCHEVEL
118 FIS6191224 2002 MONNERET Antoine FRA SA CS MERIBEL